Time;durP1;ratioP1;P1;durP2;ratioP2;P2;SDS_P1;SDS_P2;PMS_P1;PMS_P2;Temp;Humidity;BMP_temperature;BMP_pressure;BME280_temperature;BME280_humidity;BME280_pressure;Samples;Min_cycle;Max_cycle;Signal;HPM_P1;HPM_P2
2022/03/12 00:02:21;;;;;;;5.28;4.10;;;11.30;99.90;;;;;;4993513;28;20559;-62
2022/03/12 00:04:47;;;;;;;5.15;4.65;;;11.30;99.90;;;;;;4993763;28;20177;-62
2022/03/12 00:07:14;;;;;;;6.25;4.53;;;11.20;99.90;;;;;;4993759;28;20181;-62
2022/03/12 00:09:39;;;;;;;4.85;4.35;;;11.20;99.90;;;;;;4992386;28;20189;-61
2022/03/12 00:12:06;;;;;;;5.40;4.18;;;11.20;99.90;;;;;;4976256;28;20686;-62
2022/03/12 00:14:35;;;;;;;5.00;4.50;;;11.30;99.90;;;;;;4993516;28;20181;-62
2022/03/12 00:17:01;;;;;;;7.13;4.57;;;11.20;99.90;;;;;;4993279;28;20589;-61
2022/03/12 00:19:26;;;;;;;4.85;4.38;;;11.20;99.90;;;;;;4976162;28;20352;-61
2022/03/12 00:21:54;;;;;;;4.82;4.43;;;11.20;99.90;;;;;;4992276;28;20576;-62
2022/03/12 00:24:22;;;;;;;5.68;4.47;;;11.20;99.90;;;;;;4993537;28;20177;-62
2022/03/12 00:26:50;;;;;;;4.50;4.10;;;11.10;99.90;;;;;;4993388;28;20174;-62
2022/03/12 00:29:16;;;;;;;5.20;4.22;;;11.20;99.90;;;;;;4993318;28;20224;-62
2022/03/12 00:31:48;;;;;;;4.90;4.32;;;11.10;99.90;;;;;;4991953;28;20197;-62
2022/03/12 00:34:14;;;;;;;4.95;4.45;;;11.10;99.90;;;;;;4993271;28;20174;-61
2022/03/12 00:36:41;;;;;;;5.03;4.53;;;11.20;99.90;;;;;;4993425;28;20181;-61
2022/03/12 00:39:09;;;;;;;6.55;4.60;;;11.20;99.90;;;;;;4994349;28;20651;-62
2022/03/12 00:41:36;;;;;;;5.35;4.70;;;11.20;99.90;;;;;;4996964;28;20185;-62
2022/03/12 00:44:02;;;;;;;6.28;5.22;;;11.20;99.90;;;;;;4996816;28;20265;-62
2022/03/12 00:46:28;;;;;;;5.75;5.00;;;11.10;99.90;;;;;;4996945;28;20223;-62
2022/03/12 00:48:54;;;;;;;5.40;4.90;;;11.10;99.90;;;;;;4996014;28;20189;-61
2022/03/12 00:51:20;;;;;;;6.38;4.90;;;11.10;99.90;;;;;;4995558;28;20213;-62
2022/03/12 00:53:45;;;;;;;4.85;4.40;;;11.10;99.90;;;;;;4996732;28;20220;-62
2022/03/12 00:56:11;;;;;;;5.97;4.90;;;11.10;99.90;;;;;;4996702;28;20169;-61
2022/03/12 00:58:37;;;;;;;5.70;5.10;;;11.10;99.90;;;;;;4996443;28;20535;-61
2022/03/12 01:01:04;;;;;;;7.05;5.32;;;11.00;99.90;;;;;;4995455;28;20535;-62
2022/03/12 01:03:30;;;;;;;5.68;5.18;;;11.00;99.90;;;;;;4996792;28;20178;-61
2022/03/12 01:05:59;;;;;;;6.78;5.38;;;11.00;99.90;;;;;;4996599;28;20259;-62
2022/03/12 01:08:26;;;;;;;5.82;5.22;;;10.90;99.90;;;;;;4996403;28;20184;-62
2022/03/12 01:10:55;;;;;;;6.10;4.97;;;10.90;99.90;;;;;;4996335;28;20190;-61
2022/03/12 01:13:21;;;;;;;5.45;4.70;;;10.90;99.90;;;;;;4996300;28;20663;-62
2022/03/12 01:15:47;;;;;;;6.32;5.30;;;10.90;99.90;;;;;;4996417;28;20182;-62
2022/03/12 01:18:18;;;;;;;5.47;4.97;;;10.80;99.90;;;;;;4996460;28;20178;-62
2022/03/12 01:20:44;;;;;;;5.95;5.35;;;10.90;99.90;;;;;;4996397;28;20662;-61
2022/03/12 01:23:13;;;;;;;5.70;5.20;;;10.80;99.90;;;;;;4996188;28;20173;-62
2022/03/12 01:25:42;;;;;;;5.50;5.00;;;10.80;99.90;;;;;;4996019;28;20169;-61
2022/03/12 01:28:12;;;;;;;5.85;5.18;;;10.90;99.90;;;;;;4996225;28;20178;-62
2022/03/12 01:30:38;;;;;;;5.35;4.85;;;10.90;99.90;;;;;;4996117;28;20174;-61
2022/03/12 01:33:04;;;;;;;5.95;4.93;;;10.90;99.90;;;;;;4996040;28;20215;-62
2022/03/12 01:35:30;;;;;;;5.53;4.95;;;10.90;99.90;;;;;;4995925;28;20275;-61
2022/03/12 01:37:56;;;;;;;4.95;4.47;;;11.00;99.90;;;;;;4995784;28;20177;-61
2022/03/12 01:40:22;;;;;;;4.60;4.20;;;10.90;99.90;;;;;;4996378;28;20501;-62
2022/03/12 01:42:48;;;;;;;4.85;4.35;;;10.90;99.90;;;;;;4995864;28;20252;-62
2022/03/12 01:45:24;;;;;;;5.72;4.78;;;11.00;99.90;;;;;;4994770;28;20627;-61
2022/03/12 01:47:49;;;;;;;5.15;4.40;;;10.90;99.90;;;;;;4995744;28;20212;-61
2022/03/12 01:50:19;;;;;;;4.53;4.13;;;10.90;99.90;;;;;;4995051;28;20193;-62
2022/03/12 01:52:45;;;;;;;5.03;4.45;;;10.90;99.90;;;;;;4994261;28;20210;-62
2022/03/12 01:55:13;;;;;;;4.93;4.35;;;11.00;99.90;;;;;;4995970;28;20181;-62
2022/03/12 01:57:39;;;;;;;4.40;4.00;;;11.00;99.90;;;;;;4995723;28;20178;-62
2022/03/12 02:00:05;;;;;;;4.40;4.00;;;10.90;99.90;;;;;;4995571;28;20192;-61
2022/03/12 02:02:31;;;;;;;4.18;3.75;;;10.80;99.90;;;;;;4994198;28;20188;-62
2022/03/12 02:04:57;;;;;;;4.10;3.70;;;10.90;99.90;;;;;;4994204;28;20173;-62
2022/03/12 02:07:23;;;;;;;4.50;4.10;;;10.90;99.90;;;;;;4994114;28;20178;-62
2022/03/12 02:09:50;;;;;;;4.18;3.78;;;10.80;99.90;;;;;;4995336;28;20200;-62
2022/03/12 02:12:16;;;;;;;4.63;3.72;;;10.80;99.90;;;;;;4995338;28;20205;-62
2022/03/12 02:14:42;;;;;;;4.28;3.88;;;10.60;99.90;;;;;;4995330;28;20288;-62
2022/03/12 02:17:10;;;;;;;3.78;3.47;;;10.70;99.90;;;;;;4994013;28;20173;-61
2022/03/12 02:19:39;;;;;;;4.15;3.75;;;10.70;99.90;;;;;;4993906;28;20186;-62
2022/03/12 02:22:13;;;;;;;4.40;3.80;;;10.50;99.90;;;;;;4995026;28;20219;-61
2022/03/12 02:24:39;;;;;;;4.18;3.25;;;10.40;99.90;;;;;;4995233;28;20174;-61
2022/03/12 02:27:10;;;;;;;4.40;3.45;;;10.40;99.90;;;;;;4995077;28;20247;-61
2022/03/12 02:29:36;;;;;;;4.07;3.70;;;10.40;99.90;;;;;;4995041;28;20169;-62
2022/03/12 02:32:10;;;;;;;3.63;3.33;;;10.20;99.90;;;;;;4994862;28;20204;-61
2022/03/12 02:34:45;;;;;;;4.55;3.15;;;10.30;99.90;;;;;;4995012;28;20197;-62
2022/03/12 02:37:11;;;;;;;4.35;3.30;;;10.30;99.90;;;;;;4994947;28;20173;-62
2022/03/12 02:39:38;;;;;;;3.60;3.30;;;10.30;99.90;;;;;;4993488;28;20186;-61
2022/03/12 02:42:06;;;;;;;3.63;3.33;;;10.40;99.90;;;;;;4994786;28;20260;-62
2022/03/12 02:44:33;;;;;;;3.83;3.17;;;10.40;99.90;;;;;;4994640;28;20212;-62
2022/03/12 02:47:17;;;;;;;4.40;3.13;;;10.50;99.90;;;;;;4993267;28;20550;-62
2022/03/12 02:49:49;;;;;;;3.55;3.25;;;10.60;99.90;;;;;;4994721;28;20284;-62
2022/03/12 02:52:17;;;;;;;3.67;3.25;;;10.60;99.90;;;;;;4994462;28;20197;-62
2022/03/12 02:54:44;;;;;;;3.88;3.03;;;10.70;99.90;;;;;;4994532;28;20174;-62
2022/03/12 02:57:10;;;;;;;3.38;3.08;;;10.60;99.90;;;;;;4977128;28;20185;-62
2022/03/12 02:59:38;;;;;;;3.85;3.30;;;10.60;99.90;;;;;;4993029;28;20185;-62
2022/03/12 03:02:07;;;;;;;2.92;2.72;;;10.60;99.90;;;;;;4993676;28;20272;-61
2022/03/12 03:04:34;;;;;;;3.50;3.20;;;10.70;99.90;;;;;;4994591;28;20315;-62
2022/03/12 03:07:02;;;;;;;3.53;2.85;;;10.60;99.90;;;;;;4993307;28;20646;-62
2022/03/12 03:09:28;;;;;;;3.70;3.03;;;10.50;99.90;;;;;;4994327;28;20192;-61
2022/03/12 03:11:54;;;;;;;3.65;3.13;;;10.40;99.90;;;;;;4994086;28;20679;-62
2022/03/12 03:14:26;;;;;;;3.22;2.92;;;10.50;99.90;;;;;;4994322;28;20181;-62
2022/03/12 03:16:53;;;;;;;3.53;3.22;;;10.40;99.90;;;;;;4993241;28;20208;-61
2022/03/12 03:19:25;;;;;;;3.85;3.28;;;10.50;99.90;;;;;;4994176;28;20642;-62
2022/03/12 03:21:52;;;;;;;3.15;2.85;;;10.50;99.90;;;;;;4994184;28;20256;-61
2022/03/12 03:24:18;;;;;;;3.90;3.50;;;10.40;99.90;;;;;;4992666;28;20631;-62
2022/03/12 03:26:44;;;;;;;3.80;3.38;;;10.40;99.90;;;;;;4992773;28;20212;-62
2022/03/12 03:29:10;;;;;;;4.18;3.30;;;10.50;99.90;;;;;;4993912;28;20220;-62
2022/03/12 03:31:36;;;;;;;3.50;3.20;;;10.50;99.90;;;;;;4994025;28;20204;-62
2022/03/12 03:34:02;;;;;;;3.30;2.97;;;10.50;99.90;;;;;;4993820;28;20235;-62
2022/03/12 03:36:28;;;;;;;3.95;3.60;;;10.50;99.90;;;;;;4992756;28;20187;-61
2022/03/12 03:38:54;;;;;;;3.38;3.08;;;10.60;99.90;;;;;;4993945;28;20181;-62
2022/03/12 03:41:19;;;;;;;3.42;3.10;;;10.60;99.90;;;;;;4993723;28;20185;-62
2022/03/12 03:43:47;;;;;;;3.60;3.30;;;10.60;99.90;;;;;;4992642;28;20169;-62
2022/03/12 03:46:17;;;;;;;4.60;3.28;;;10.50;99.90;;;;;;4993694;28;20224;-62
2022/03/12 03:48:46;;;;;;;4.53;3.78;;;10.60;99.90;;;;;;4993796;28;20227;-62
2022/03/12 03:51:12;;;;;;;3.60;3.25;;;10.60;99.90;;;;;;4992555;28;20177;-62
2022/03/12 03:53:37;;;;;;;4.15;3.40;;;10.50;99.90;;;;;;4992405;28;20174;-61
2022/03/12 03:56:04;;;;;;;3.72;3.33;;;10.60;99.90;;;;;;4976512;28;20207;-61
2022/03/12 03:58:32;;;;;;;3.83;3.53;;;10.50;99.90;;;;;;4993731;28;20196;-61
2022/03/12 04:01:10;;;;;;;4.22;3.80;;;10.50;99.90;;;;;;4993746;28;20173;-61
2022/03/12 04:03:37;;;;;;;4.35;3.70;;;10.60;99.90;;;;;;4993674;28;20309;-61
2022/03/12 04:06:04;;;;;;;3.78;3.33;;;10.50;99.90;;;;;;4993430;28;20650;-61
2022/03/12 04:08:31;;;;;;;3.70;3.40;;;10.60;99.90;;;;;;4993706;28;20174;-61
2022/03/12 04:10:57;;;;;;;3.95;3.17;;;10.70;99.90;;;;;;4993824;28;20201;-62
2022/03/12 04:13:23;;;;;;;3.97;3.08;;;10.70;99.90;;;;;;4995273;28;20227;-61
2022/03/12 04:15:51;;;;;;;4.13;3.72;;;10.60;99.90;;;;;;4997730;28;20216;-61
2022/03/12 04:18:18;;;;;;;3.70;3.40;;;10.50;99.90;;;;;;4997355;28;20181;-61
2022/03/12 04:20:46;;;;;;;4.30;3.42;;;10.40;99.90;;;;;;4997248;28;20196;-62
2022/03/12 04:23:13;;;;;;;6.35;3.80;;;10.40;99.90;;;;;;4997510;28;20533;-61
2022/03/12 04:25:40;;;;;;;4.75;3.30;;;10.30;99.90;;;;;;4980209;28;20573;-61
2022/03/12 04:28:06;;;;;;;5.10;3.45;;;10.20;99.90;;;;;;4997286;28;20208;-61
2022/03/12 04:30:32;;;;;;;5.57;3.47;;;10.10;99.90;;;;;;4997073;28;20196;-61
2022/03/12 04:32:58;;;;;;;4.30;3.90;;;10.00;99.90;;;;;;4995854;28;20209;-61
2022/03/12 04:35:25;;;;;;;4.53;3.58;;;10.00;99.90;;;;;;4996942;28;20183;-62
2022/03/12 04:37:52;;;;;;;4.20;3.25;;;9.80;99.90;;;;;;4997247;28;20185;-61
2022/03/12 04:40:27;;;;;;;5.28;3.88;;;9.80;99.90;;;;;;4997069;28;20589;-61
2022/03/12 04:42:54;;;;;;;4.25;3.80;;;9.80;99.90;;;;;;4997082;28;20527;-61
2022/03/12 04:45:23;;;;;;;5.75;3.70;;;9.70;99.90;;;;;;4995633;28;20181;-61
2022/03/12 04:47:50;;;;;;;4.43;3.72;;;9.60;99.90;;;;;;4996687;28;20165;-62
2022/03/12 04:50:17;;;;;;;5.72;3.85;;;9.60;99.90;;;;;;4997034;28;20184;-61
2022/03/12 04:52:44;;;;;;;5.70;4.00;;;9.60;99.90;;;;;;4996801;28;20212;-61
2022/03/12 04:55:22;;;;;;;6.35;3.70;;;9.60;99.90;;;;;;4996731;28;20185;-61
2022/03/12 04:57:49;;;;;;;4.72;3.80;;;9.60;99.90;;;;;;4997068;28;20660;-61
2022/03/12 05:00:25;;;;;;;4.93;3.88;;;9.50;99.90;;;;;;4995293;28;20177;-63
2022/03/12 05:03:01;;;;;;;7.88;4.07;;;9.60;99.90;;;;;;4996697;28;20177;-64
2022/03/12 05:05:27;;;;;;;5.63;3.75;;;9.50;99.90;;;;;;4996476;28;20594;-63
2022/03/12 05:07:53;;;;;;;4.72;3.90;;;9.60;99.90;;;;;;4996409;28;20174;-63
2022/03/12 05:10:19;;;;;;;5.20;4.07;;;9.60;99.90;;;;;;4994983;28;20208;-63
2022/03/12 05:12:48;;;;;;;4.57;3.72;;;9.60;99.90;;;;;;4994995;28;20344;-64
2022/03/12 05:15:17;;;;;;;4.40;3.80;;;9.50;99.90;;;;;;4996559;28;20202;-63
2022/03/12 05:17:48;;;;;;;6.18;4.40;;;9.40;99.90;;;;;;4995224;28;20654;-63
2022/03/12 05:20:38;;;;;;;5.63;4.40;;;9.50;99.90;;;;;;4996689;28;20177;-63
2022/03/12 05:23:07;;;;;;;5.18;4.50;;;9.40;99.90;;;;;;4996234;28;20195;-63
2022/03/12 05:25:41;;;;;;;5.22;4.50;;;9.30;99.90;;;;;;4995296;28;20239;-63
2022/03/12 05:28:09;;;;;;;5.45;4.72;;;9.40;99.90;;;;;;4995147;28;20180;-63
2022/03/12 05:30:36;;;;;;;5.18;4.68;;;9.30;99.90;;;;;;4994988;28;20178;-63
2022/03/12 05:33:03;;;;;;;7.97;4.93;;;9.30;99.90;;;;;;4996108;28;20213;-63
2022/03/12 05:35:29;;;;;;;8.88;5.20;;;9.30;99.90;;;;;;4995924;28;20534;-63
2022/03/12 05:37:55;;;;;;;7.35;4.88;;;9.30;99.90;;;;;;4994763;28;20268;-62
2022/03/12 05:40:25;;;;;;;6.78;4.63;;;9.20;99.90;;;;;;4996147;28;20189;-63
2022/03/12 05:42:55;;;;;;;5.13;4.40;;;9.30;99.90;;;;;;4996046;28;20247;-61
2022/03/12 05:45:21;;;;;;;5.45;4.43;;;9.20;99.90;;;;;;4995880;28;20184;-62
2022/03/12 05:47:49;;;;;;;5.80;4.13;;;9.20;99.90;;;;;;4994631;28;20181;-62
2022/03/12 05:50:15;;;;;;;6.80;4.28;;;9.20;99.90;;;;;;4995568;28;20181;-61
2022/03/12 05:52:47;;;;;;;6.53;4.22;;;9.20;99.90;;;;;;4995737;28;20200;-61
2022/03/12 05:55:14;;;;;;;5.03;3.45;;;9.30;99.90;;;;;;4996012;28;20217;-62
2022/03/12 05:57:40;;;;;;;6.10;3.55;;;9.20;99.90;;;;;;4994597;28;20184;-61
2022/03/12 06:00:10;;;;;;;4.55;3.80;;;9.20;99.90;;;;;;4995582;28;20181;-50
2022/03/12 06:02:36;;;;;;;3.75;3.30;;;9.20;99.90;;;;;;4995450;28;20185;-59
2022/03/12 06:05:02;;;;;;;4.55;3.28;;;9.20;99.90;;;;;;4994042;28;20281;-59
2022/03/12 06:07:29;;;;;;;3.72;3.42;;;9.10;99.90;;;;;;4994468;28;20228;-59
2022/03/12 06:09:55;;;;;;;4.07;3.38;;;9.20;99.90;;;;;;4977929;28;20198;-59
2022/03/12 06:12:21;;;;;;;4.10;3.08;;;9.20;99.90;;;;;;4995236;28;20205;-59
2022/03/12 06:14:52;;;;;;;4.28;3.38;;;9.30;99.90;;;;;;4977805;28;20215;-59
2022/03/12 06:17:19;;;;;;;3.88;3.42;;;9.20;99.90;;;;;;4995132;28;20181;-59
2022/03/12 06:19:45;;;;;;;4.63;3.60;;;9.10;99.90;;;;;;4995021;28;20184;-60
2022/03/12 06:22:12;;;;;;;4.97;3.70;;;9.10;99.90;;;;;;4993826;28;20655;-59
2022/03/12 06:24:39;;;;;;;5.15;3.50;;;9.10;99.90;;;;;;4995160;28;20209;-58
2022/03/12 06:27:05;;;;;;;5.28;3.58;;;9.10;99.90;;;;;;4995042;28;20170;-59
2022/03/12 06:29:30;;;;;;;3.55;3.00;;;9.20;99.90;;;;;;4994941;28;20173;-59
2022/03/12 06:31:56;;;;;;;4.32;3.20;;;9.10;99.90;;;;;;4994491;28;20681;-59
2022/03/12 06:34:22;;;;;;;5.03;3.78;;;9.20;99.90;;;;;;4994910;28;20188;-59
2022/03/12 06:36:49;;;;;;;4.00;2.78;;;9.20;99.90;;;;;;4993385;28;20169;-59
2022/03/12 06:39:15;;;;;;;4.78;3.08;;;9.30;99.90;;;;;;4994710;28;20181;-59
2022/03/12 06:41:45;;;;;;;4.95;3.22;;;9.30;99.90;;;;;;4993444;28;20678;-59
2022/03/12 06:44:12;;;;;;;5.90;3.13;;;9.30;99.90;;;;;;4994507;28;20223;-59
2022/03/12 06:46:38;;;;;;;3.67;2.80;;;9.30;99.90;;;;;;4993245;28;20232;-58
2022/03/12 06:49:05;;;;;;;4.22;3.03;;;9.30;99.90;;;;;;4994606;28;20186;-59
2022/03/12 06:51:34;;;;;;;4.18;3.53;;;9.30;99.90;;;;;;4994465;28;20180;-59
2022/03/12 06:54:00;;;;;;;3.72;2.97;;;9.30;99.90;;;;;;4994509;28;20305;-59
2022/03/12 06:56:26;;;;;;;2.92;2.22;;;9.40;99.90;;;;;;4993233;28;20174;-59
2022/03/12 06:58:52;;;;;;;4.22;2.90;;;9.40;99.90;;;;;;4993052;28;20536;-59
2022/03/12 07:01:18;;;;;;;2.95;2.65;;;9.50;99.90;;;;;;5025326;28;20272;-59
2022/03/12 07:03:44;;;;;;;3.95;3.13;;;9.60;99.90;;;;;;5033518;28;20588;-59
2022/03/12 07:06:10;;;;;;;4.82;3.15;;;9.60;99.90;;;;;;5032417;28;20168;-59
2022/03/12 07:08:36;;;;;;;3.78;2.63;;;9.70;99.90;;;;;;5032220;28;20176;-59
2022/03/12 07:11:03;;;;;;;3.53;2.50;;;9.70;99.90;;;;;;5033131;28;20191;-59
2022/03/12 07:13:30;;;;;;;6.40;2.90;;;9.70;99.90;;;;;;5031825;28;20214;-59
2022/03/12 07:15:56;;;;;;;5.50;3.00;;;9.80;99.90;;;;;;4996387;28;20181;-59
2022/03/12 07:18:22;;;;;;;3.72;2.95;;;9.80;99.90;;;;;;4994125;28;20504;-59
2022/03/12 07:20:48;;;;;;;6.13;3.65;;;9.80;99.90;;;;;;4994073;28;20184;-59
2022/03/12 07:23:13;;;;;;;4.70;3.35;;;9.90;99.90;;;;;;4992652;28;20181;-58
2022/03/12 07:25:39;;;;;;;6.00;2.72;;;10.00;99.90;;;;;;4994429;28;20677;-59
2022/03/12 07:28:05;;;;;;;3.47;3.00;;;10.20;99.90;;;;;;4993561;28;20174;-59
2022/03/12 07:30:31;;;;;;;5.95;2.95;;;10.30;99.90;;;;;;5003604;28;20180;-59
2022/03/12 07:32:56;;;;;;;6.50;2.80;;;10.40;99.90;;;;;;5012198;28;20219;-59
2022/03/12 07:35:22;;;;;;;4.85;2.70;;;10.40;99.90;;;;;;5013402;28;20260;-58
2022/03/12 07:37:49;;;;;;;5.32;2.70;;;10.60;99.90;;;;;;5012274;28;20177;-59
2022/03/12 07:40:16;;;;;;;4.68;2.58;;;10.90;99.90;;;;;;5013226;28;20187;-59
2022/03/12 07:42:42;;;;;;;7.00;3.00;;;11.00;99.90;;;;;;5013293;28;20184;-59
2022/03/12 07:45:09;;;;;;;5.20;2.80;;;11.00;99.90;;;;;;5013095;28;20177;-59
2022/03/12 07:47:35;;;;;;;3.38;2.65;;;11.10;99.90;;;;;;5012754;28;20177;-59
2022/03/12 07:50:02;;;;;;;4.80;3.03;;;11.20;99.90;;;;;;5013239;28;20259;-58
2022/03/12 07:52:28;;;;;;;4.18;2.55;;;11.30;99.90;;;;;;5012622;28;20699;-59
2022/03/12 07:54:53;;;;;;;4.72;2.70;;;11.60;99.90;;;;;;5013252;28;20185;-59
2022/03/12 07:57:19;;;;;;;5.03;3.05;;;11.70;99.90;;;;;;5011661;28;20184;-58
2022/03/12 07:59:46;;;;;;;5.93;3.10;;;11.60;99.90;;;;;;5011763;28;20284;-58
2022/03/12 08:02:12;;;;;;;5.75;2.70;;;11.60;99.90;;;;;;5023212;28;20209;-59
2022/03/12 08:04:38;;;;;;;3.05;2.38;;;11.60;99.90;;;;;;5031469;28;20234;-59
2022/03/12 08:07:04;;;;;;;6.00;3.00;;;11.50;99.90;;;;;;5023137;28;20176;-58
2022/03/12 08:09:31;;;;;;;5.68;2.80;;;11.50;99.90;;;;;;5009563;28;20193;-58
2022/03/12 08:11:58;;;;;;;5.90;2.80;;;11.50;99.90;;;;;;5012462;28;20258;-58
2022/03/12 08:14:24;;;;;;;5.18;3.10;;;11.40;99.90;;;;;;5011935;28;20768;-58
2022/03/12 08:16:52;;;;;;;5.18;2.70;;;11.30;99.90;;;;;;5013266;28;20172;-59
2022/03/12 08:19:19;;;;;;;5.63;2.88;;;11.40;99.90;;;;;;5013140;28;20183;-58
2022/03/12 08:21:46;;;;;;;5.60;2.83;;;11.50;99.90;;;;;;5011998;28;20215;-58
2022/03/12 08:24:15;;;;;;;7.32;3.28;;;11.50;99.90;;;;;;5011909;28;20184;-58
2022/03/12 08:26:46;;;;;;;8.80;3.30;;;11.50;99.90;;;;;;5012893;28;20177;-58
2022/03/12 08:29:14;;;;;;;5.95;3.05;;;11.40;99.90;;;;;;5012001;28;20177;-58
2022/03/12 08:31:41;;;;;;;5.13;2.55;;;11.30;99.90;;;;;;5012983;28;20189;-58
2022/03/12 08:34:11;;;;;;;4.72;2.70;;;11.30;99.90;;;;;;5011740;28;20192;-54
2022/03/12 08:36:36;;;;;;;4.43;2.75;;;11.30;99.90;;;;;;5012901;28;20646;-50
2022/03/12 08:39:03;;;;;;;6.45;2.83;;;11.50;99.90;;;;;;5011548;28;20181;-51
2022/03/12 08:41:29;;;;;;;6.82;3.30;;;11.60;99.90;;;;;;5012841;28;20511;-53
2022/03/12 08:43:55;;;;;;;5.68;2.97;;;11.70;99.90;;;;;;5012823;28;20173;-51
2022/03/12 08:46:21;;;;;;;6.32;3.05;;;11.80;99.90;;;;;;5012905;28;20227;-49
2022/03/12 08:48:46;;;;;;;7.13;2.78;;;11.80;99.90;;;;;;5011553;28;20209;-51
2022/03/12 08:51:12;;;;;;;5.25;2.90;;;11.80;99.90;;;;;;5012808;28;20524;-52
2022/03/12 08:53:38;;;;;;;3.72;2.70;;;11.90;99.90;;;;;;5011297;28;20235;-53
2022/03/12 08:56:05;;;;;;;9.95;3.17;;;12.20;99.90;;;;;;5012794;28;20516;-50
2022/03/12 08:58:32;;;;;;;5.15;2.72;;;12.30;99.90;;;;;;5012763;28;20176;-51
2022/03/12 09:00:59;;;;;;;5.18;2.85;;;12.40;99.90;;;;;;5015003;28;20561;-49
2022/03/12 09:03:25;;;;;;;5.53;2.85;;;12.70;99.90;;;;;;5016243;28;20216;-45
2022/03/12 09:05:51;;;;;;;6.07;2.83;;;12.80;99.90;;;;;;5016054;28;20589;-57
2022/03/12 09:08:18;;;;;;;4.10;2.42;;;12.80;99.90;;;;;;5015992;28;20635;-55
2022/03/12 09:10:45;;;;;;;4.47;2.47;;;12.80;99.90;;;;;;5016296;28;20192;-55
2022/03/12 09:13:14;;;;;;;6.93;2.80;;;12.90;99.90;;;;;;5016057;28;20307;-55
2022/03/12 09:15:41;;;;;;;5.65;2.50;;;12.80;99.90;;;;;;5015818;28;20206;-56
2022/03/12 09:18:08;;;;;;;5.15;2.53;;;12.80;99.90;;;;;;5015910;28;20184;-56
2022/03/12 09:20:43;;;;;;;7.32;3.05;;;12.90;99.90;;;;;;5015764;28;20199;-56
2022/03/12 09:23:09;;;;;;;5.32;2.53;;;13.10;99.90;;;;;;5015324;28;20226;-57
2022/03/12 09:25:35;;;;;;;4.30;2.83;;;13.30;99.90;;;;;;5014766;28;20259;-54
2022/03/12 09:28:01;;;;;;;6.55;2.63;;;13.40;99.90;;;;;;5015854;28;20654;-55
2022/03/12 09:30:27;;;;;;;6.85;2.75;;;13.50;99.90;;;;;;5015743;28;20183;-56
2022/03/12 09:32:53;;;;;;;8.43;2.80;;;13.50;99.90;;;;;;5015546;28;20565;-57
2022/03/12 09:35:19;;;;;;;6.15;2.50;;;13.60;99.90;;;;;;5015490;28;20187;-57
2022/03/12 09:37:46;;;;;;;3.47;2.20;;;13.60;99.90;;;;;;5015769;28;20204;-57
2022/03/12 09:40:15;;;;;;;6.07;3.10;;;13.70;99.90;;;;;;5014664;28;20177;-55
2022/03/12 09:42:41;;;;;;;6.28;2.90;;;13.90;99.90;;;;;;5015491;28;20184;-54
2022/03/12 09:45:08;;;;;;;4.43;2.80;;;13.80;99.90;;;;;;5015483;28;20185;-56
2022/03/12 09:47:33;;;;;;;6.32;2.50;;;13.80;99.90;;;;;;5015362;28;20177;-56
2022/03/12 09:49:59;;;;;;;6.10;2.80;;;13.60;99.90;;;;;;5014057;28;20326;-56
2022/03/12 09:52:25;;;;;;;7.95;2.90;;;13.40;99.90;;;;;;5015282;28;20295;-56
2022/03/12 09:54:51;;;;;;;7.57;2.70;;;13.60;99.90;;;;;;5015295;28;20184;-55
2022/03/12 09:57:17;;;;;;;4.75;2.97;;;13.70;99.90;;;;;;5014011;28;20181;-57
2022/03/12 09:59:43;;;;;;;7.13;3.17;;;13.80;99.90;;;;;;5015025;28;20185;-56
2022/03/12 10:02:09;;;;;;;5.72;2.90;;;13.80;99.90;;;;;;5013708;28;20388;-58
2022/03/12 10:04:35;;;;;;;5.03;2.88;;;14.10;99.90;;;;;;5014230;28;20192;-56
2022/03/12 10:07:01;;;;;;;7.43;2.67;;;13.80;99.90;;;;;;5014546;28;20172;-56
2022/03/12 10:09:26;;;;;;;6.53;2.72;;;13.70;99.90;;;;;;5014163;28;20326;-46
2022/03/12 10:11:53;;;;;;;5.28;2.75;;;13.60;99.90;;;;;;5013885;28;20535;-54
2022/03/12 10:14:20;;;;;;;4.53;2.50;;;13.70;99.90;;;;;;5014458;28;20708;-53
2022/03/12 10:16:46;;;;;;;6.13;2.47;;;13.80;99.90;;;;;;5014599;28;20188;-54
2022/03/12 10:19:12;;;;;;;5.90;2.83;;;13.70;99.90;;;;;;5014637;28;20172;-54
2022/03/12 10:21:42;;;;;;;6.78;2.60;;;13.70;99.90;;;;;;4997328;28;20268;-54
2022/03/12 10:24:17;;;;;;;4.72;2.95;;;13.60;99.90;;;;;;5013554;28;20172;-54
2022/03/12 10:26:45;;;;;;;5.60;2.53;;;13.70;99.90;;;;;;5013395;28;20741;-54
2022/03/12 10:29:11;;;;;;;6.07;2.55;;;13.90;99.90;;;;;;5014850;28;20219;-53
2022/03/12 10:31:38;;;;;;;6.55;2.67;;;13.80;99.90;;;;;;5014341;28;20193;-51
2022/03/12 10:34:20;;;;;;;5.72;2.15;;;14.00;99.90;;;;;;5014612;28;20208;-51
2022/03/12 10:36:47;;;;;;;5.35;1.90;;;14.00;99.90;;;;;;5014586;28;20168;-51
2022/03/12 10:39:13;;;;;;;5.95;2.45;;;14.10;99.90;;;;;;5013417;28;20177;-55
2022/03/12 10:41:40;;;;;;;6.20;2.10;;;14.20;99.90;;;;;;5014302;28;20331;-55
2022/03/12 10:44:06;;;;;;;6.40;2.28;;;14.30;99.90;;;;;;5014049;28;20208;-51
2022/03/12 10:46:34;;;;;;;5.75;2.40;;;14.50;99.90;;;;;;5012964;28;20529;-55
2022/03/12 10:49:02;;;;;;;4.47;2.28;;;14.60;99.90;;;;;;5014442;28;20176;-52
2022/03/12 10:51:34;;;;;;;4.70;2.20;;;14.50;99.90;;;;;;5014245;28;20534;-54
2022/03/12 10:54:15;;;;;;;5.45;2.10;;;14.50;99.90;;;;;;5014180;28;20172;-52
2022/03/12 10:56:50;;;;;;;5.80;2.30;;;14.60;99.90;;;;;;5013885;28;20599;-54
2022/03/12 10:59:24;;;;;;;6.18;2.38;;;14.70;99.90;;;;;;5029835;28;20172;-57
2022/03/12 11:02:00;;;;;;;5.72;2.20;;;14.70;99.90;;;;;;5014075;28;20207;-55
2022/03/12 11:04:29;;;;;;;5.05;2.30;;;14.80;99.90;;;;;;5011875;28;20299;-55
2022/03/12 11:06:59;;;;;;;3.58;1.88;;;14.70;99.90;;;;;;5013099;28;20188;-54
2022/03/12 11:09:32;;;;;;;4.00;1.90;;;14.60;99.90;;;;;;5013042;28;20197;-54
2022/03/12 11:11:59;;;;;;;7.18;2.40;;;14.80;99.90;;;;;;5013064;28;20243;-52
2022/03/12 11:14:24;;;;;;;4.75;2.05;;;14.90;99.90;;;;;;5011911;28;20302;-52
2022/03/12 11:16:52;;;;;;;5.80;2.00;;;15.00;99.90;;;;;;5013010;28;20187;-55
2022/03/12 11:19:37;;;;;;;7.43;2.58;;;14.90;99.90;;;;;;5013000;28;20226;-57
2022/03/12 11:22:13;;;;;;;4.50;2.05;;;15.00;99.90;;;;;;5012645;28;20184;-53
2022/03/12 11:24:54;;;;;;;5.28;2.25;;;15.00;99.90;;;;;;5011796;28;20176;-53
2022/03/12 11:27:32;;;;;;;6.40;2.30;;;15.00;99.90;;;;;;5012791;28;20306;-54
2022/03/12 11:30:00;;;;;;;5.95;2.40;;;15.10;99.90;;;;;;5012829;28;20183;-51
2022/03/12 11:32:34;;;;;;;4.10;2.22;;;14.90;99.90;;;;;;5012982;28;20200;-55
2022/03/12 11:35:11;;;;;;;7.03;2.67;;;14.90;99.90;;;;;;5011762;28;20184;-54
2022/03/12 11:37:41;;;;;;;4.72;2.20;;;15.10;99.90;;;;;;5012847;28;20198;-54
2022/03/12 11:40:11;;;;;;;6.82;2.33;;;15.00;99.90;;;;;;5013047;28;20322;-53
2022/03/12 11:42:39;;;;;;;3.58;1.98;;;15.00;99.90;;;;;;5012995;28;20181;-55
2022/03/12 11:45:15;;;;;;;5.50;2.40;;;15.10;99.90;;;;;;5012698;28;20179;-54
2022/03/12 11:47:44;;;;;;;4.80;2.50;;;15.40;99.90;;;;;;5012764;28;20175;-54
2022/03/12 11:50:15;;;;;;;6.72;2.55;;;15.30;99.90;;;;;;5012629;28;20172;-55
2022/03/12 11:52:42;;;;;;;8.50;2.63;;;15.30;99.90;;;;;;5012474;28;20672;-54
2022/03/12 11:55:17;;;;;;;4.80;2.50;;;15.40;99.90;;;;;;5012455;28;20591;-53
2022/03/12 11:57:45;;;;;;;6.20;2.47;;;15.50;99.90;;;;;;5012730;28;20248;-52
2022/03/12 12:00:28;;;;;;;5.90;2.25;;;15.50;99.90;;;;;;5012595;28;20259;-56
2022/03/12 12:02:55;;;;;;;6.90;2.30;;;15.50;99.90;;;;;;5010618;28;20334;-53
2022/03/12 12:05:23;;;;;;;7.30;2.38;;;15.50;99.90;;;;;;5012375;28;20176;-54
2022/03/12 12:07:51;;;;;;;8.20;2.30;;;15.50;99.90;;;;;;4995333;28;20173;-55
2022/03/12 12:10:19;;;;;;;3.40;2.08;;;15.30;99.90;;;;;;5012453;28;20568;-54
2022/03/12 12:12:52;;;;;;;5.55;2.50;;;15.30;99.90;;;;;;5012435;28;20204;-53
2022/03/12 12:15:24;;;;;;;6.18;2.25;;;15.50;99.90;;;;;;5012442;28;20177;-54
2022/03/12 12:17:50;;;;;;;5.50;2.05;;;15.80;99.90;;;;;;5012295;28;20737;-53
2022/03/12 12:20:19;;;;;;;4.68;2.30;;;15.80;99.90;;;;;;5012829;28;20173;-53
2022/03/12 12:22:45;;;;;;;6.00;2.05;;;15.90;99.90;;;;;;5011227;28;20200;-55
2022/03/12 12:25:11;;;;;;;9.02;2.10;;;16.00;99.90;;;;;;4994766;28;20321;-56
2022/03/12 12:27:52;;;;;;;6.32;2.28;;;16.10;99.90;;;;;;5012314;28;20195;-55
2022/03/12 12:30:34;;;;;;;5.45;2.00;;;16.20;99.90;;;;;;5012184;28;20168;-54
2022/03/12 12:33:01;;;;;;;4.40;2.10;;;16.10;99.90;;;;;;5011736;28;20223;-55
2022/03/12 12:35:31;;;;;;;4.75;2.40;;;16.10;99.90;;;;;;5014388;28;20239;-54
2022/03/12 12:38:04;;;;;;;4.28;2.20;;;16.00;99.90;;;;;;5015944;28;20483;-51
2022/03/12 12:40:41;;;;;;;4.03;2.30;;;16.00;99.90;;;;;;5015759;28;20231;-53
2022/03/12 12:43:10;;;;;;;6.40;2.13;;;16.10;99.90;;;;;;5014642;28;20298;-55
2022/03/12 12:45:56;;;;;;;7.10;2.17;;;15.90;99.90;;;;;;5015919;28;20646;-54
2022/03/12 12:48:51;;;;;;;6.05;2.00;;;15.90;99.90;;;;;;5015931;28;20656;-56
2022/03/12 12:51:21;;;;;;;7.30;2.00;;;16.10;99.90;;;;;;5013690;28;20196;-53
2022/03/12 12:54:02;;;;;;;4.68;1.63;;;16.10;99.90;;;;;;5015817;28;20211;-54